New Century 1 — H9LA — position and weather

sailwx.info

Track history (hours):
 
Tides and Currents Weather Stations Pressure Air Temp Water Temp Dewpoint Dewpoint Depression Visibility Wind Speed Wind Dir Waves Ship Positions

New Century 1

Last reported at 2016-Feb-06 10:33 UTC. Time now 2016-Feb-11 08:49 UTC.
Position N 37°08' W 124°40'.

Length 200 m; beam 32.3 m.

Type: Cargo ship. MMSI: 355234000.

Date/timePositionNaut miles runAvg speedWind from/ knotsBaromVisibWave heightAir tempDewpointWater temp
2016-Feb-06 10:33N 37°08' W 124°40'1717.1
2016-Feb-06 09:33N 37°14' W 124°20'1817.8
2016-Feb-06 08:33N 37°20' W 123°59'1818.1
2016-Feb-06 07:33N 37°25' W 123°37'1818.2
2016-Feb-06 06:33N 37°31' W 123°15'1817.7
2016-Feb-06 05:33N 37°39' W 122°55'1514.5
2016-Feb-06 04:33N 37°46' W 122°39'1312.7
2016-Feb-06 03:34N 37°51' W 122°25'1312.8
2016-Feb-06 02:33N 38°03' W 122°19'9 0.4
2016-Feb-05 05:09N 38°02' W 122°08'4 6.6
2016-Feb-05 04:33N 38°04' W 122°13'1413.9
2016-Feb-05 03:33N 37°55' W 122°27'8 8.1
2016-Feb-05 02:33N 37°48' W 122°31'10 9.8
2016-Feb-05 01:34N 37°43' W 122°42'4 4.2
2016-Feb-05 00:34N 37°39' W 122°40'1413.5
2016-Feb-04 23:33N 37°25' W 122°40'1818.5
2016-Feb-04 22:33N 37°07' W 122°40'2118.0
2016-Feb-04 21:24N 36°46' W 122°39'1517.9
2016-Feb-04 20:32N 36°31' W 122°34'12317.5
2016-Feb-04 13:33N 34°44' W 121°21'1917.5
2016-Feb-04 12:29N 34°30' W 121°06'5518.5
2016-Feb-04 09:31N 34°15' W 120°02'2318.8
2016-Feb-04 08:17N 34°09' W 119°35'4214.0
2016-Feb-04 05:15N 33°52' W 118°48'1010.5
2016-Feb-04 04:21N 33°47' W 118°38'810.1
2016-Feb-04 03:33N 33°43' W 118°30'1010.1
2016-Feb-04 02:33N 33°38' W 118°19'8 8.0
2016-Feb-04 01:33N 33°43' W 118°11'4 3.9
2016-Feb-04 00:31N 33°46' W 118°13'0 0.0
2016-Feb-03 23:31N 33°46' W 118°13'0 0.0
2016-Feb-03 22:31N 33°46' W 118°13'0 0.0
2016-Feb-03 21:31N 33°46' W 118°13'0 0.0
2016-Feb-03 20:31N 33°46' W 118°13'0 0.0
2016-Feb-03 19:31N 33°46' W 118°13'0 0.0
2016-Feb-03 18:31N 33°46' W 118°13'0 0.0
2016-Feb-03 17:31N 33°46' W 118°13'0 0.0
2016-Feb-03 16:31N 33°46' W 118°13'0 0.0
2016-Feb-03 15:31N 33°46' W 118°13'0 0.0
2016-Feb-03 14:31N 33°46' W 118°13'0 0.0
2016-Feb-03 13:31N 33°46' W 118°13'0 0.0
2016-Feb-03 12:31N 33°46' W 118°13'0 0.0
2016-Feb-03 11:31N 33°46' W 118°13'0 0.0
2016-Feb-03 10:31N 33°46' W 118°13'0 0.0
2016-Feb-03 09:31N 33°46' W 118°13'0 0.0
2016-Feb-03 08:31N 33°46' W 118°13'0 0.0
2016-Feb-03 07:31N 33°46' W 118°13'0 0.0
2016-Feb-03 06:31N 33°46' W 118°13'0 0.0
2016-Feb-03 05:28N 33°46' W 118°13'0 0.0
2016-Feb-03 04:31N 33°46' W 118°13'0 0.0
2016-Feb-03 03:31N 33°46' W 118°13'0 0.0
2016-Feb-03 02:31N 33°46' W 118°13'0 0.3
2016-Feb-03 01:33N 33°46' W 118°13'6 5.4
2016-Feb-03 00:32N 33°41' W 118°11'9 8.5
2016-Feb-02 23:30N 33°33' W 118°08'9 9.8
2016-Feb-02 22:33N 33°24' W 118°05'1010.0
2016-Feb-02 21:33N 33°14' W 118°00'9 8.9
2016-Feb-02 20:31N 33°06' W 117°57'5 5.4
2016-Feb-02 19:33N 33°01' W 117°58'1010.1
2016-Feb-02 18:33N 32°52' W 118°04'1616.0
2016-Feb-02 17:33N 32°41' W 118°18'  
Track history (hours):
 
Tides and Currents Weather Stations Pressure Air Temp Water Temp Dewpoint Dewpoint Depression Visibility Wind Speed Wind Dir Waves Ship Positions

New Century 1

Last reported at 2016-Feb-06 10:33 UTC. Time now 2016-Feb-11 08:49 UTC.
Position N 37°08' W 124°40'.

Length 200 m; beam 32.3 m.

Type: Cargo ship. MMSI: 355234000.

Date/timePositionNaut miles runAvg speedWind from/ knotsBaromVisibWave heightAir tempDewpointWater temp
2016-Feb-06 10:33N 37°08' W 124°40'1717.1
2016-Feb-06 09:33N 37°14' W 124°20'1817.8
2016-Feb-06 08:33N 37°20' W 123°59'1818.1
2016-Feb-06 07:33N 37°25' W 123°37'1818.2
2016-Feb-06 06:33N 37°31' W 123°15'1817.7
2016-Feb-06 05:33N 37°39' W 122°55'1514.5
2016-Feb-06 04:33N 37°46' W 122°39'1312.7
2016-Feb-06 03:34N 37°51' W 122°25'1312.8
2016-Feb-06 02:33N 38°03' W 122°19'9 0.4
2016-Feb-05 05:09N 38°02' W 122°08'4 6.6
2016-Feb-05 04:33N 38°04' W 122°13'1413.9
2016-Feb-05 03:33N 37°55' W 122°27'8 8.1
2016-Feb-05 02:33N 37°48' W 122°31'10 9.8
2016-Feb-05 01:34N 37°43' W 122°42'4 4.2
2016-Feb-05 00:34N 37°39' W 122°40'1413.5
2016-Feb-04 23:33N 37°25' W 122°40'1818.5
2016-Feb-04 22:33N 37°07' W 122°40'2118.0
2016-Feb-04 21:24N 36°46' W 122°39'1517.9
2016-Feb-04 20:32N 36°31' W 122°34'12317.5
2016-Feb-04 13:33N 34°44' W 121°21'1917.5
2016-Feb-04 12:29N 34°30' W 121°06'5518.5
2016-Feb-04 09:31N 34°15' W 120°02'2318.8
2016-Feb-04 08:17N 34°09' W 119°35'4214.0
2016-Feb-04 05:15N 33°52' W 118°48'1010.5
2016-Feb-04 04:21N 33°47' W 118°38'810.1
2016-Feb-04 03:33N 33°43' W 118°30'1010.1
2016-Feb-04 02:33N 33°38' W 118°19'8 8.0
2016-Feb-04 01:33N 33°43' W 118°11'4 3.9
2016-Feb-04 00:31N 33°46' W 118°13'0 0.0
2016-Feb-03 23:31N 33°46' W 118°13'0 0.0
2016-Feb-03 22:31N 33°46' W 118°13'0 0.0
2016-Feb-03 21:31N 33°46' W 118°13'0 0.0
2016-Feb-03 20:31N 33°46' W 118°13'0 0.0
2016-Feb-03 19:31N 33°46' W 118°13'0 0.0
2016-Feb-03 18:31N 33°46' W 118°13'0 0.0
2016-Feb-03 17:31N 33°46' W 118°13'0 0.0
2016-Feb-03 16:31N 33°46' W 118°13'0 0.0
2016-Feb-03 15:31N 33°46' W 118°13'0 0.0
2016-Feb-03 14:31N 33°46' W 118°13'0 0.0
2016-Feb-03 13:31N 33°46' W 118°13'0 0.0
2016-Feb-03 12:31N 33°46' W 118°13'0 0.0
2016-Feb-03 11:31N 33°46' W 118°13'0 0.0
2016-Feb-03 10:31N 33°46' W 118°13'0 0.0
2016-Feb-03 09:31N 33°46' W 118°13'0 0.0
2016-Feb-03 08:31N 33°46' W 118°13'0 0.0
2016-Feb-03 07:31N 33°46' W 118°13'0 0.0
2016-Feb-03 06:31N 33°46' W 118°13'0 0.0
2016-Feb-03 05:28N 33°46' W 118°13'0 0.0
2016-Feb-03 04:31N 33°46' W 118°13'0 0.0
2016-Feb-03 03:31N 33°46' W 118°13'0 0.0
2016-Feb-03 02:31N 33°46' W 118°13'0 0.3
2016-Feb-03 01:33N 33°46' W 118°13'6 5.4
2016-Feb-03 00:32N 33°41' W 118°11'9 8.5
2016-Feb-02 23:30N 33°33' W 118°08'9 9.8
2016-Feb-02 22:33N 33°24' W 118°05'1010.0
2016-Feb-02 21:33N 33°14' W 118°00'9 8.9
2016-Feb-02 20:31N 33°06' W 117°57'5 5.4
2016-Feb-02 19:33N 33°01' W 117°58'1010.1
2016-Feb-02 18:33N 32°52' W 118°04'1616.0
2016-Feb-02 17:33N 32°41' W 118°18'  

Dump ship's entire track history